Time;durP1;ratioP1;P1;durP2;ratioP2;P2;SDS_P1;SDS_P2;PMS_P1;PMS_P2;Temp;Humidity;BMP_temperature;BMP_pressure;BME280_temperature;BME280_humidity;BME280_pressure;Samples;Min_cycle;Max_cycle;Signal;HPM_P1;HPM_P2
2023/01/20 00:01:25;;;;;;;9.43;7.83;;;;;;;3.91;93.65;99601.00;1555576;88;21450;-78
2023/01/20 00:03:53;;;;;;;9.77;8.43;;;;;;;3.93;93.69;99594.34;1422412;88;21427;-78
2023/01/20 00:06:22;;;;;;;12.97;10.57;;;;;;;3.93;93.48;99600.41;1469630;88;21729;-79
2023/01/20 00:08:54;;;;;;;12.03;10.20;;;;;;;3.95;93.33;99600.30;1463558;88;21532;-85
2023/01/20 00:11:21;;;;;;;11.73;10.00;;;;;;;3.94;93.71;99594.23;1447514;88;21852;-84
2023/01/20 00:13:48;;;;;;;14.43;10.70;;;;;;;3.96;93.61;99604.56;1471826;88;21585;-83
2023/01/20 00:16:14;;;;;;;14.37;11.20;;;;;;;3.91;92.91;99602.30;1465876;88;21317;-82
2023/01/20 00:18:40;;;;;;;11.50;9.60;;;;;;;3.90;93.22;99605.89;1471303;88;21547;-83
2023/01/20 00:21:11;;;;;;;12.40;9.50;;;;;;;3.91;92.77;99610.64;1473371;88;22440;-83
2023/01/20 00:23:39;;;;;;;13.38;10.95;;;;;;;3.91;93.32;99614.09;1470265;88;22330;-84
2023/01/20 00:26:15;;;;;;;13.50;10.60;;;;;;;3.94;93.50;99619.56;1474192;88;21384;-83
2023/01/20 00:28:42;;;;;;;13.20;10.77;;;;;;;3.95;93.06;99639.08;1469387;88;21399;-82
2023/01/20 00:31:21;;;;;;;14.17;10.83;;;;;;;3.97;93.38;99652.89;1456892;88;21620;-84
2023/01/20 00:33:49;;;;;;;13.67;11.17;;;;;;;3.98;93.38;99654.54;1470795;88;21368;-83
2023/01/20 00:36:18;;;;;;;12.07;10.53;;;;;;;3.97;93.09;99659.89;1474381;88;21450;-85
2023/01/20 00:38:44;;;;;;;15.20;12.47;;;;;;;3.95;93.29;99653.48;1457767;88;21538;-84
2023/01/20 00:41:11;;;;;;;13.40;11.50;;;;;;;3.94;92.96;99646.59;1462849;88;21383;-83
2023/01/20 00:43:38;;;;;;;14.67;11.33;;;;;;;3.92;92.82;99645.05;1450978;88;21591;-83
2023/01/20 00:46:05;;;;;;;11.90;9.57;;;;;;;3.91;93.09;99640.75;1475279;88;21295;-83
2023/01/20 00:48:32;;;;;;;15.07;11.30;;;;;;;3.91;92.86;99645.98;1472600;88;21412;-83
2023/01/20 00:51:00;;;;;;;14.30;10.90;;;;;;;3.92;92.95;99648.50;1476020;88;21457;-85
2023/01/20 00:53:26;;;;;;;15.20;12.20;;;;;;;3.91;92.68;99648.13;1472103;88;21361;-84
2023/01/20 00:55:52;;;;;;;16.20;12.20;;;;;;;3.84;92.38;99648.28;1475115;88;22279;-83
2023/01/20 00:58:18;;;;;;;15.23;12.83;;;;;;;3.84;92.38;99648.28;1463108;88;21749;-83
2023/01/20 01:00:50;;;;;;;16.77;12.90;;;;;;;3.85;92.86;99660.41;1467348;88;21428;-82
2023/01/20 01:03:17;;;;;;;14.90;11.50;;;;;;;3.83;92.83;99659.72;1473402;88;22367;-82
2023/01/20 01:05:44;;;;;;;16.10;12.53;;;;;;;3.85;93.13;99653.86;1473710;88;21391;-83
2023/01/20 01:08:11;;;;;;;16.77;12.87;;;;;;;3.92;92.94;99643.26;1476510;88;21377;-83
2023/01/20 01:10:37;;;;;;;18.20;14.40;;;;;;;3.92;92.94;99643.26;1475256;88;21391;-83
2023/01/20 01:13:05;;;;;;;17.73;12.97;;;;;;;3.95;92.78;99642.19;1473290;88;21375;-85
2023/01/20 01:15:32;;;;;;;18.70;14.10;;;;;;;3.94;92.94;99621.72;1465231;88;21339;-83
2023/01/20 01:17:59;;;;;;;23.00;15.47;;;;;;;3.96;92.81;99631.57;1474812;87;22302;-83
2023/01/20 01:20:26;;;;;;;27.10;18.23;;;;;;;3.96;92.77;99639.42;1472665;88;21396;-85
2023/01/20 01:22:53;;;;;;;26.00;17.57;;;;;;;3.95;92.66;99637.77;1471981;88;21450;-84
2023/01/20 01:25:20;;;;;;;22.33;16.97;;;;;;;3.95;92.73;99633.84;1475028;88;21369;-86
2023/01/20 01:27:46;;;;;;;21.67;15.37;;;;;;;3.95;92.80;99634.33;1472608;88;21405;-84
2023/01/20 01:30:13;;;;;;;17.43;12.90;;;;;;;3.96;92.80;99634.19;1467033;88;21376;-84
2023/01/20 01:32:39;;;;;;;17.20;13.57;;;;;;;3.97;92.92;99629.33;1474057;88;21398;-84
2023/01/20 01:35:06;;;;;;;16.57;13.20;;;;;;;3.99;92.96;99631.80;1473510;88;22264;-84
2023/01/20 01:37:34;;;;;;;17.47;13.67;;;;;;;3.99;92.96;99631.31;1471403;88;21450;-85
2023/01/20 01:40:00;;;;;;;19.20;14.80;;;;;;;3.98;92.78;99628.36;1475166;88;21553;-85
2023/01/20 01:42:27;;;;;;;16.43;13.57;;;;;;;3.91;92.55;99641.58;1478988;88;22454;-83
2023/01/20 01:45:14;;;;;;;17.93;13.13;;;;;;;3.84;93.07;99636.50;1475877;88;21383;-80
2023/01/20 01:47:55;;;;;;;15.53;13.00;;;;;;;3.81;93.11;99630.20;1446171;88;21465;-81
2023/01/20 01:50:47;;;;;;;18.20;13.70;;;;;;;3.79;93.14;99629.48;1469604;88;21524;-81
2023/01/20 01:53:15;;;;;;;16.47;12.83;;;;;;;3.80;93.20;99632.48;1473004;88;21591;-82
2023/01/20 01:55:46;;;;;;;17.17;12.67;;;;;;;3.83;93.49;99644.01;1472052;88;21362;-81
2023/01/20 01:58:16;;;;;;;15.67;12.27;;;;;;;3.85;93.39;99647.31;1474178;88;21361;-82
2023/01/20 02:00:43;;;;;;;15.70;12.87;;;;;;;3.88;93.39;99644.45;1476053;88;21495;-82
2023/01/20 02:03:11;;;;;;;21.13;14.50;;;;;;;3.91;93.50;99639.44;1469208;88;23028;-82
2023/01/20 02:05:38;;;;;;;20.67;14.87;;;;;;;3.93;93.44;99638.36;1469829;88;21361;-81
2023/01/20 02:08:07;;;;;;;18.43;13.77;;;;;;;3.91;93.10;99640.75;1471457;88;21368;-82
2023/01/20 02:10:34;;;;;;;20.40;14.70;;;;;;;3.88;93.09;99634.45;1471354;88;21392;-82
2023/01/20 02:13:01;;;;;;;20.83;15.23;;;;;;;3.83;93.56;99628.30;1473813;88;21635;-81
2023/01/20 02:15:35;;;;;;;22.27;16.07;;;;;;;3.84;93.91;99636.50;1469532;88;21362;-80
2023/01/20 02:18:19;;;;;;;21.33;15.87;;;;;;;3.84;93.88;99635.19;1469932;88;22560;-82
2023/01/20 02:21:24;;;;;;;20.60;15.60;;;;;;;3.87;94.20;99625.78;1471036;88;21590;-82
2023/01/20 02:24:30;;;;;;;23.17;16.70;;;;;;;3.80;94.78;99619.39;1467698;88;21413;-79
2023/01/20 02:27:07;;;;;;;22.07;16.00;;;;;;;3.73;94.73;99607.73;1476689;88;21376;-80
2023/01/20 02:30:02;;;;;;;21.30;15.50;;;;;;;3.76;95.41;99599.64;1476043;88;21413;-80
2023/01/20 02:32:36;;;;;;;23.10;17.00;;;;;;;3.76;95.41;99599.64;1483405;88;21495;-79
2023/01/20 02:35:13;;;;;;;22.53;17.07;;;;;;;3.78;95.54;99609.03;1479581;88;23133;-79
2023/01/20 02:37:52;;;;;;;21.53;16.33;;;;;;;3.79;95.70;99592.84;1478745;88;21442;-79
2023/01/20 02:40:27;;;;;;;20.57;15.70;;;;;;;3.81;95.71;99597.00;1478308;88;21420;-81
2023/01/20 02:43:01;;;;;;;20.17;14.33;;;;;;;3.85;95.58;99591.03;1473780;88;21649;-80
2023/01/20 02:45:39;;;;;;;19.03;14.33;;;;;;;3.88;95.27;99583.41;1470274;88;21594;-80
2023/01/20 02:48:38;;;;;;;21.97;15.57;;;;;;;3.89;95.28;99580.68;1470256;88;21518;-82
2023/01/20 02:51:13;;;;;;;21.90;14.73;;;;;;;3.88;95.08;99567.22;1470076;88;21348;-83
2023/01/20 02:53:54;;;;;;;25.00;13.70;;;;;;;3.78;94.60;99566.33;1471705;88;21442;-82
2023/01/20 02:56:26;;;;;;;22.20;14.25;;;;;;;3.67;94.73;99566.36;1477165;88;21613;-83
2023/01/20 02:59:03;;;;;;;21.37;14.43;;;;;;;3.49;96.21;99571.30;1471436;88;22247;-82
2023/01/20 03:01:40;;;;;;;20.50;15.20;;;;;;;3.46;96.56;99576.78;1474639;88;21616;-83
2023/01/20 03:04:08;;;;;;;19.43;13.90;;;;;;;3.46;96.56;99576.78;1471056;88;22445;-82
2023/01/20 03:06:39;;;;;;;18.37;13.20;;;;;;;3.46;96.48;99576.30;1471144;88;22154;-82
2023/01/20 03:09:10;;;;;;;17.25;12.70;;;;;;;3.45;96.22;99574.63;1471842;88;22250;-82
2023/01/20 03:11:42;;;;;;;20.62;15.15;;;;;;;3.37;96.95;99575.73;1471097;88;21509;-81
2023/01/20 03:14:13;;;;;;;16.83;12.97;;;;;;;3.41;96.74;99570.60;1474571;88;21419;-82
2023/01/20 03:16:40;;;;;;;22.52;12.60;;;;;;;3.39;96.62;99573.81;1469998;88;22087;-82
2023/01/20 03:19:08;;;;;;;18.93;14.53;;;;;;;3.39;96.62;99573.81;1468471;88;21338;-82
2023/01/20 03:21:36;;;;;;;19.43;13.00;;;;;;;3.41;97.44;99571.91;1465481;88;21405;-81
2023/01/20 03:24:04;;;;;;;19.93;12.23;;;;;;;3.31;97.05;99563.98;1471980;88;21620;-82
2023/01/20 03:26:31;;;;;;;17.03;12.77;;;;;;;3.24;98.23;99564.58;1473796;88;21347;-82
2023/01/20 03:29:00;;;;;;;14.93;11.70;;;;;;;3.29;98.30;99565.87;1468768;88;21473;-82
2023/01/20 03:31:41;;;;;;;13.87;11.03;;;;;;;3.32;98.56;99577.88;1479691;88;22232;-84
2023/01/20 03:34:14;;;;;;;16.20;10.82;;;;;;;3.20;100.00;99574.94;1467342;88;22538;-81
2023/01/20 03:36:43;;;;;;;15.03;11.13;;;;;;;3.18;100.00;99582.89;1452354;88;22417;-81
2023/01/20 03:39:10;;;;;;;14.90;11.33;;;;;;;3.18;100.00;99589.91;1472644;88;23031;-81
2023/01/20 03:42:07;;;;;;;14.00;10.47;;;;;;;3.23;100.00;99588.59;1466156;88;21398;-81
2023/01/20 03:44:58;;;;;;;11.57;7.50;;;;;;;3.18;100.00;99574.22;1476709;88;21369;-81
2023/01/20 03:47:45;;;;;;;12.23;8.53;;;;;;;3.05;100.00;99579.56;1480507;88;22105;-82
2023/01/20 03:50:44;;;;;;;11.57;7.97;;;;;;;3.03;100.00;99581.01;1478127;88;23036;-81
2023/01/20 03:53:44;;;;;;;9.03;6.73;;;;;;;2.90;100.00;99585.03;1464516;88;22271;-82
2023/01/20 03:56:20;;;;;;;9.27;7.70;;;;;;;2.88;100.00;99592.19;1472176;88;22174;-82
2023/01/20 03:58:51;;;;;;;8.87;6.60;;;;;;;2.80;100.00;99585.89;1469631;88;22174;-83
2023/01/20 04:01:22;;;;;;;8.13;6.67;;;;;;;2.79;100.00;99582.45;1470469;88;22114;-82
2023/01/20 04:03:51;;;;;;;;;;;;;;;2.77;100.00;99587.44;1473301;88;21383;-82
2023/01/20 04:06:20;;;;;;;10.10;6.40;;;;;;;2.64;100.00;99579.21;1472171;88;20291;-81
2023/01/20 04:08:56;;;;;;;8.97;6.10;;;;;;;2.67;100.00;99582.89;1460062;88;22042;-81
2023/01/20 04:11:23;;;;;;;8.03;5.10;;;;;;;2.53;100.00;99587.03;1474112;88;22137;-81
2023/01/20 04:13:50;;;;;;;6.03;4.50;;;;;;;2.48;100.00;99591.80;1477997;88;22958;-81
2023/01/20 04:16:18;;;;;;;6.90;5.13;;;;;;;2.44;100.00;99591.66;1470903;88;22181;-81
2023/01/20 04:18:49;;;;;;;7.77;4.67;;;;;;;2.42;100.00;99577.91;1474957;88;22985;-81
2023/01/20 04:21:42;;;;;;;6.28;4.47;;;;;;;2.44;100.00;99582.03;1468772;88;22151;-81
2023/01/20 04:24:26;;;;;;;5.63;4.23;;;;;;;2.37;100.00;99573.50;1462219;88;21553;-80
2023/01/20 04:26:52;;;;;;;6.43;4.63;;;;;;;2.35;100.00;99563.16;1472828;88;22159;-81
2023/01/20 04:29:18;;;;;;;5.90;4.57;;;;;;;2.32;100.00;99573.00;1466716;88;22240;-82
2023/01/20 04:31:45;;;;;;;5.03;4.53;;;;;;;2.32;100.00;99573.00;1477149;88;22115;-81
2023/01/20 04:34:15;;;;;;;6.17;4.30;;;;;;;2.26;100.00;99567.29;1473922;88;22078;-81
2023/01/20 04:36:42;;;;;;;6.37;4.95;;;;;;;2.29;100.00;99571.45;1476750;88;22262;-82
2023/01/20 04:39:09;;;;;;;7.77;4.67;;;;;;;2.32;100.00;99576.44;1465399;88;22419;-85
2023/01/20 04:41:35;;;;;;;8.90;6.10;;;;;;;2.32;100.00;99576.44;1473017;88;22041;-84
2023/01/20 04:44:01;;;;;;;8.50;6.40;;;;;;;2.40;100.00;99584.53;1469474;88;22049;-84
2023/01/20 04:46:28;;;;;;;6.97;6.00;;;;;;;2.40;100.00;99574.56;1468175;88;22086;-77
2023/01/20 04:48:54;;;;;;;8.30;6.33;;;;;;;2.46;100.00;99580.63;1471592;88;22160;-85
2023/01/20 04:51:20;;;;;;;8.40;6.47;;;;;;;2.40;100.00;99575.88;1472598;88;22048;-85
2023/01/20 04:53:57;;;;;;;9.20;6.50;;;;;;;2.40;100.00;99575.88;1474117;88;22958;-83
2023/01/20 04:56:23;;;;;;;11.37;7.73;;;;;;;2.39;100.00;99581.58;1471544;88;22034;-82
2023/01/20 04:58:49;;;;;;;8.73;6.90;;;;;;;2.42;100.00;99583.13;1468769;88;22930;-82
2023/01/20 05:01:16;;;;;;;11.47;6.87;;;;;;;2.36;100.00;99577.03;1468710;88;22152;-83
2023/01/20 05:03:42;;;;;;;11.80;7.93;;;;;;;2.33;100.00;99572.19;1465598;88;22072;-83
2023/01/20 05:06:10;;;;;;;9.53;7.30;;;;;;;2.37;100.00;99572.19;1475357;88;22090;-83
2023/01/20 05:08:36;;;;;;;10.07;7.90;;;;;;;2.32;100.00;99575.62;1478701;88;22063;-83
2023/01/20 05:11:04;;;;;;;10.50;8.13;;;;;;;2.31;100.00;99571.35;1468040;88;22951;-83
2023/01/20 05:13:30;;;;;;;9.33;6.97;;;;;;;2.24;100.00;99561.38;1481472;88;22095;-82
2023/01/20 05:15:57;;;;;;;13.33;9.93;;;;;;;2.23;100.00;99570.13;1474579;88;22078;-83
2023/01/20 05:18:23;;;;;;;12.30;9.97;;;;;;;2.33;100.00;99564.21;1474283;88;22671;-83
2023/01/20 05:20:49;;;;;;;11.20;8.63;;;;;;;2.41;100.00;99568.38;1474570;88;22142;-79
2023/01/20 05:23:16;;;;;;;11.60;8.47;;;;;;;2.44;100.00;99570.77;1470094;88;22910;-79
2023/01/20 05:25:50;;;;;;;10.03;7.73;;;;;;;2.41;100.00;99567.91;1470898;88;22082;-78
2023/01/20 05:28:16;;;;;;;15.73;8.27;;;;;;;2.43;100.00;99556.38;1470880;88;22042;-81
2023/01/20 05:30:43;;;;;;;14.13;7.83;;;;;;;2.33;100.00;99556.38;1475874;88;22076;-81
2023/01/20 05:33:10;;;;;;;14.07;9.53;;;;;;;2.26;100.00;99560.77;1467137;88;22223;-82
2023/01/20 05:35:40;;;;;;;13.10;9.30;;;;;;;2.21;100.00;99558.97;1476071;88;22964;-82
2023/01/20 05:38:06;;;;;;;12.33;10.00;;;;;;;2.24;100.00;99563.12;1476636;88;23175;-81
2023/01/20 05:40:32;;;;;;;13.40;9.77;;;;;;;2.34;100.00;99573.25;1467069;88;22128;-81
2023/01/20 05:43:01;;;;;;;15.67;10.43;;;;;;;2.43;100.00;99579.55;1467978;88;22121;-81
2023/01/20 05:45:29;;;;;;;13.23;10.33;;;;;;;2.49;100.00;99580.39;1472766;88;22218;-86
2023/01/20 05:47:57;;;;;;;14.30;10.47;;;;;;;2.53;100.00;99575.28;1466611;88;22054;-80
2023/01/20 05:50:25;;;;;;;17.70;11.70;;;;;;;2.51;100.00;99569.36;1479230;88;22063;-81
2023/01/20 05:52:52;;;;;;;18.93;12.40;;;;;;;2.43;100.00;99571.72;1468083;88;22072;-81
2023/01/20 05:55:18;;;;;;;15.80;11.20;;;;;;;2.41;100.00;99580.96;1482396;88;22327;-83
2023/01/20 05:57:45;;;;;;;17.87;12.43;;;;;;;2.43;100.00;99573.02;1470620;88;22989;-88
2023/01/20 06:00:13;;;;;;;19.40;12.00;;;;;;;2.44;100.00;99575.50;1467314;88;22301;-87
2023/01/20 06:02:40;;;;;;;18.37;13.03;;;;;;;2.44;100.00;99564.23;1473729;88;22916;-84
2023/01/20 06:05:07;;;;;;;17.57;12.33;;;;;;;2.45;100.00;99556.77;1464218;88;22036;-84
2023/01/20 06:07:33;;;;;;;18.67;13.53;;;;;;;2.51;100.00;99568.05;1460395;88;23093;-84
2023/01/20 06:10:01;;;;;;;21.50;12.00;;;;;;;2.56;100.00;99554.17;1469865;88;22065;-85
2023/01/20 06:12:27;;;;;;;20.43;12.60;;;;;;;2.51;100.00;99537.19;1461690;88;22065;-86
2023/01/20 06:14:53;;;;;;;17.20;11.33;;;;;;;2.51;100.00;99537.19;1469815;88;22388;-84
2023/01/20 06:17:20;;;;;;;16.50;11.77;;;;;;;2.49;100.00;99543.83;1469630;88;22106;-84
2023/01/20 06:19:46;;;;;;;17.07;12.07;;;;;;;2.44;100.00;99522.45;1472629;88;22159;-83
2023/01/20 06:22:14;;;;;;;16.23;11.03;;;;;;;2.36;100.00;99516.97;1481563;88;22249;-84
2023/01/20 06:24:40;;;;;;;14.00;9.57;;;;;;;2.43;100.00;99527.33;1469746;88;22063;-84
2023/01/20 06:27:07;;;;;;;14.17;10.47;;;;;;;2.44;100.00;99544.64;1478966;88;22099;-79
2023/01/20 06:29:35;;;;;;;18.43;12.47;;;;;;;2.48;100.00;99561.77;1472835;88;23268;-84
2023/01/20 06:32:01;;;;;;;16.63;12.23;;;;;;;2.55;100.00;99563.42;1469053;88;22109;-84
2023/01/20 06:34:27;;;;;;;16.67;11.80;;;;;;;2.63;100.00;99568.41;1460528;88;22771;-85
2023/01/20 06:36:53;;;;;;;19.73;13.20;;;;;;;2.65;100.00;99571.75;1470304;88;22011;-86
2023/01/20 06:39:19;;;;;;;19.97;13.87;;;;;;;2.62;100.00;99560.23;1473345;88;22263;-83
2023/01/20 06:41:46;;;;;;;20.00;13.33;;;;;;;2.64;100.00;99573.98;1475871;88;22147;-84
2023/01/20 06:44:12;;;;;;;18.63;12.73;;;;;;;2.69;100.00;99574.47;1476695;88;21523;-84
2023/01/20 06:46:38;;;;;;;19.13;11.63;;;;;;;2.67;100.00;99563.30;1473973;88;22206;-84
2023/01/20 06:49:04;;;;;;;17.20;11.27;;;;;;;2.59;100.00;99559.16;1467142;88;22153;-80
2023/01/20 06:51:32;;;;;;;15.77;11.07;;;;;;;2.58;100.00;99556.17;1462788;88;22164;-79
2023/01/20 06:53:58;;;;;;;14.43;10.13;;;;;;;2.51;100.00;99551.55;1453507;88;23074;-81
2023/01/20 06:56:25;;;;;;;13.33;10.20;;;;;;;2.58;100.00;99548.34;1471213;88;22151;-81
2023/01/20 06:58:51;;;;;;;13.57;10.07;;;;;;;2.51;100.00;99538.02;1476620;88;22170;-81
2023/01/20 07:01:27;;;;;;;11.67;8.30;;;;;;;2.55;100.00;99538.13;1464172;88;22144;-80
2023/01/20 07:03:54;;;;;;;11.73;8.80;;;;;;;2.51;100.00;99539.33;1467824;88;23264;-82
2023/01/20 07:06:38;;;;;;;13.93;9.37;;;;;;;2.46;100.00;99537.05;1466835;88;22089;-78
2023/01/20 07:09:08;;;;;;;13.33;9.73;;;;;;;2.52;100.00;99543.59;1453857;88;22113;-81
2023/01/20 07:11:35;;;;;;;12.83;8.90;;;;;;;2.56;100.00;99549.40;1471320;88;22136;-79
2023/01/20 07:14:02;;;;;;;12.03;8.53;;;;;;;2.47;100.00;99535.27;1473451;88;23118;-80
2023/01/20 07:16:29;;;;;;;15.27;9.13;;;;;;;2.55;100.00;99540.73;1470136;88;22098;-83
2023/01/20 07:18:55;;;;;;;13.47;9.90;;;;;;;2.52;100.00;99538.36;1473190;88;22964;-83
2023/01/20 07:21:22;;;;;;;14.13;8.53;;;;;;;2.55;100.00;99535.52;1467984;88;22269;-87
2023/01/20 07:23:48;;;;;;;17.90;9.77;;;;;;;2.46;100.00;99532.31;1474934;88;22017;-87
2023/01/20 07:26:18;;;;;;;14.03;10.00;;;;;;;2.42;100.00;99528.28;1472922;88;23092;-88
2023/01/20 07:28:45;;;;;;;15.73;11.33;;;;;;;2.42;100.00;99526.98;1469253;88;23046;-80
2023/01/20 07:31:16;;;;;;;16.13;10.43;;;;;;;2.45;100.00;99528.05;1477891;88;22079;-81
2023/01/20 07:33:42;;;;;;;22.62;12.05;;;;;;;2.46;100.00;99510.11;1478554;88;22277;-81
2023/01/20 07:36:10;;;;;;;16.93;10.07;;;;;;;2.33;100.00;99510.68;1458555;88;22288;-87
2023/01/20 07:38:58;;;;;;;18.57;11.37;;;;;;;2.30;100.00;99505.70;1474902;88;22026;-86
2023/01/20 07:41:25;;;;;;;26.47;12.43;;;;;;;2.32;100.00;99505.11;1469628;88;22136;-88
2023/01/20 07:43:53;;;;;;;16.83;10.43;;;;;;;2.36;100.00;99496.08;1470178;88;22111;-88
2023/01/20 07:46:28;;;;;;;18.77;11.03;;;;;;;2.42;100.00;99487.80;1472566;88;22049;-87
2023/01/20 07:48:55;;;;;;;16.57;10.10;;;;;;;2.46;100.00;99483.98;1466680;88;23025;-87
2023/01/20 07:55:21;;;;;;;19.27;11.33;;;;;;;2.42;100.00;99478.66;1478301;88;22234;-88
2023/01/20 07:57:51;;;;;;;18.53;11.77;;;;;;;2.40;100.00;99472.72;1463750;88;23108;-86
2023/01/20 08:00:19;;;;;;;17.03;10.73;;;;;;;2.39;100.00;99469.28;1473373;88;22212;-88
2023/01/20 08:02:45;;;;;;;17.67;11.60;;;;;;;2.32;100.00;99462.86;1464169;88;22203;-87
2023/01/20 08:05:12;;;;;;;19.93;11.17;;;;;;;2.39;100.00;99460.63;1451379;88;23084;-85
2023/01/20 08:07:38;;;;;;;17.60;10.33;;;;;;;2.34;100.00;99458.83;1471594;88;22027;-87
2023/01/20 08:14:09;;;;;;;16.97;10.20;;;;;;;2.35;100.00;99476.98;1469800;88;22169;-86
2023/01/20 08:16:37;;;;;;;23.93;13.13;;;;;;;2.31;100.00;99466.91;1462568;88;21932;-88
2023/01/20 08:19:03;;;;;;;19.53;11.63;;;;;;;2.36;100.00;99479.11;1471385;88;22191;-87
2023/01/20 08:21:31;;;;;;;21.20;12.47;;;;;;;2.40;100.00;99483.98;1475064;88;23130;-86
2023/01/20 08:24:00;;;;;;;19.37;11.70;;;;;;;2.44;100.00;99500.24;1476520;88;22140;-85
2023/01/20 08:26:28;;;;;;;22.70;11.53;;;;;;;2.54;100.00;99497.30;1464885;88;22174;-87
2023/01/20 08:29:02;;;;;;;22.80;13.97;;;;;;;2.47;99.69;99494.78;1473285;88;22117;-87
2023/01/20 08:31:53;;;;;;;28.23;16.47;;;;;;;2.48;100.00;99491.24;1453106;88;23240;-86
2023/01/20 08:34:20;;;;;;;21.07;12.63;;;;;;;2.45;99.82;99481.03;1466054;88;22960;-87
2023/01/20 08:36:48;;;;;;;21.87;13.67;;;;;;;2.42;98.84;99489.94;1467788;88;22125;-87
2023/01/20 08:39:17;;;;;;;25.50;15.93;;;;;;;2.43;99.68;99486.84;1474754;88;22066;-87
2023/01/20 08:41:46;;;;;;;24.90;13.80;;;;;;;2.48;99.43;99480.31;1470576;88;22123;-87
2023/01/20 08:44:14;;;;;;;31.17;16.47;;;;;;;2.47;99.32;99477.80;1480159;88;23076;-87
2023/01/20 08:46:40;;;;;;;24.90;12.83;;;;;;;2.52;99.67;99474.84;1473503;88;22187;-86
2023/01/20 08:49:11;;;;;;;27.47;14.80;;;;;;;2.51;99.14;99474.02;1474621;88;22081;-88
2023/01/20 08:51:38;;;;;;;20.90;11.65;;;;;;;2.50;99.52;99459.28;1472283;88;22082;-85
2023/01/20 08:54:04;;;;;;;21.40;12.20;;;;;;;2.53;99.78;99460.83;1471588;88;21568;-89
2023/01/20 08:56:32;;;;;;;22.33;12.00;;;;;;;2.47;99.48;99466.05;1477668;88;22161;-87
2023/01/20 08:58:59;;;;;;;21.10;11.97;;;;;;;2.47;99.81;99451.69;1465681;88;21999;-87
2023/01/20 09:01:30;;;;;;;22.73;12.23;;;;;;;2.44;100.00;99450.63;1473241;88;22235;-89
2023/01/20 09:03:57;;;;;;;24.15;14.53;;;;;;;2.43;100.00;99442.44;1455114;88;22110;-88
2023/01/20 09:06:24;;;;;;;19.27;11.10;;;;;;;2.46;100.00;99440.41;1469975;88;21590;-86
2023/01/20 09:08:52;;;;;;;21.97;13.17;;;;;;;2.38;100.00;99440.66;1467977;88;22072;-87
2023/01/20 09:11:23;;;;;;;27.97;13.63;;;;;;;2.41;100.00;99451.69;1475643;88;22140;-88
2023/01/20 09:13:49;;;;;;;;;;;;;;;2.46;100.00;99465.70;1475672;88;22131;-91
2023/01/20 09:16:18;;;;;;;18.97;12.00;;;;;;;2.56;100.00;99469.28;1472177;88;20716;-91
2023/01/20 09:18:44;;;;;;;22.43;12.77;;;;;;;2.69;100.00;99466.04;1471853;88;21339;-90
2023/01/20 09:21:11;;;;;;;20.30;12.10;;;;;;;2.84;100.00;99473.62;1470585;88;22146;-90
2023/01/20 09:23:39;;;;;;;21.17;12.33;;;;;;;2.98;100.00;99464.20;1469602;88;22153;-89
2023/01/20 09:26:07;;;;;;;20.00;11.77;;;;;;;2.99;100.00;99476.31;1471846;88;23011;-89
2023/01/20 09:28:35;;;;;;;20.73;12.90;;;;;;;3.02;100.00;99472.17;1476315;88;22124;-87
2023/01/20 09:31:05;;;;;;;20.67;12.97;;;;;;;2.97;100.00;99462.55;1471875;88;22154;-88
2023/01/20 09:33:40;;;;;;;20.70;11.63;;;;;;;3.02;100.00;99463.02;1464976;88;22036;-87
2023/01/20 09:36:10;;;;;;;25.33;16.13;;;;;;;2.83;100.00;99468.88;1477896;88;23197;-87
2023/01/20 09:44:40;;;;;;;21.10;12.67;;;;;;;2.42;100.00;99473.44;1471459;88;22176;-87
2023/01/20 09:47:33;;;;;;;22.40;13.30;;;;;;;2.36;100.00;99468.66;1472118;88;22044;-90
2023/01/20 09:57:26;;;;;;;20.90;13.87;;;;;;;2.35;100.00;99457.39;1471207;88;22118;-86
2023/01/20 10:00:01;;;;;;;24.03;11.40;;;;;;;2.34;100.00;99436.64;1467714;88;22177;-86
2023/01/20 10:02:32;;;;;;;20.33;11.03;;;;;;;2.21;100.00;99424.51;1473345;88;22261;-86
2023/01/20 10:05:13;;;;;;;21.50;12.53;;;;;;;2.21;100.00;99424.51;1469688;88;21863;-85
2023/01/20 10:07:45;;;;;;;21.77;11.83;;;;;;;2.23;100.00;99428.33;1474813;88;22039;-84
2023/01/20 10:10:32;;;;;;;21.17;11.37;;;;;;;2.17;100.00;99433.54;1466725;88;21501;-86
2023/01/20 10:13:29;;;;;;;28.87;12.90;;;;;;;2.15;100.00;99430.21;1472204;88;22938;-85
2023/01/20 10:15:58;;;;;;;19.63;11.33;;;;;;;2.11;100.00;99426.19;1468552;88;22077;-86
2023/01/20 10:18:47;;;;;;;20.83;13.23;;;;;;;2.13;100.00;99429.97;1479956;88;22190;-85
2023/01/20 10:21:18;;;;;;;20.97;10.53;;;;;;;2.19;100.00;99419.91;1471022;88;22338;-84
2023/01/20 10:23:59;;;;;;;22.83;13.53;;;;;;;2.24;100.00;99404.72;1468142;88;22333;-85
2023/01/20 10:26:37;;;;;;;25.02;13.78;;;;;;;2.24;100.00;99404.72;1465264;88;22325;-85
2023/01/20 10:29:08;;;;;;;21.60;11.13;;;;;;;2.19;100.00;99395.10;1465593;88;21576;-86
2023/01/20 10:31:39;;;;;;;31.97;14.33;;;;;;;2.10;100.00;99391.05;1467874;88;22058;-86
2023/01/20 10:34:14;;;;;;;19.83;10.77;;;;;;;2.08;100.00;99382.05;1471924;88;21398;-83
2023/01/20 10:36:45;;;;;;;26.43;13.80;;;;;;;2.02;100.00;99370.78;1473910;88;22102;-86
2023/01/20 10:39:38;;;;;;;23.45;15.32;;;;;;;2.02;100.00;99370.78;1476213;88;22204;-85
2023/01/20 10:42:12;;;;;;;21.63;11.13;;;;;;;2.06;100.00;99378.72;1477734;88;21442;-85
2023/01/20 10:44:38;;;;;;;22.30;11.17;;;;;;;2.01;100.00;99362.13;1460617;88;22020;-85
2023/01/20 10:47:36;;;;;;;21.67;12.90;;;;;;;2.07;100.00;99360.80;1469569;88;22014;-85
2023/01/20 10:50:37;;;;;;;24.03;9.97;;;;;;;2.07;100.00;99360.80;1445713;88;22346;-85
2023/01/20 10:53:32;;;;;;;24.05;12.73;;;;;;;2.03;100.00;99360.69;1469244;88;22102;-85
2023/01/20 10:56:31;;;;;;;21.27;11.93;;;;;;;2.01;100.00;99353.45;1467899;88;21480;-85
2023/01/20 10:59:09;;;;;;;21.20;12.13;;;;;;;2.00;100.00;99343.48;1471781;88;22198;-86
2023/01/20 11:01:36;;;;;;;23.53;13.03;;;;;;;2.00;100.00;99343.48;1466215;88;22176;-85
2023/01/20 11:04:02;;;;;;;24.70;14.47;;;;;;;2.01;100.00;99336.48;1469798;88;22271;-85
2023/01/20 11:06:28;;;;;;;17.73;11.53;;;;;;;2.05;100.00;99337.92;1474514;88;22318;-85
2023/01/20 11:08:55;;;;;;;22.00;13.63;;;;;;;1.97;100.00;99324.64;1470390;88;21820;-85
2023/01/20 11:11:24;;;;;;;20.87;11.17;;;;;;;2.00;100.00;99333.53;1473532;88;21967;-86
2023/01/20 11:13:52;;;;;;;23.30;13.53;;;;;;;1.98;100.00;99331.02;1465591;88;22095;-86
2023/01/20 11:16:30;;;;;;;21.50;12.57;;;;;;;1.99;100.00;99333.19;1471359;88;22232;-87
2023/01/20 11:19:02;;;;;;;25.90;11.83;;;;;;;1.99;100.00;99326.66;1476198;88;22041;-86
2023/01/20 11:21:34;;;;;;;22.97;11.73;;;;;;;1.95;100.00;99320.00;1462630;88;23262;-85
2023/01/20 11:24:02;;;;;;;25.33;12.80;;;;;;;2.03;100.00;99323.67;1480833;88;22140;-84
2023/01/20 11:26:35;;;;;;;20.20;11.33;;;;;;;2.00;100.00;99307.44;1474454;88;23138;-83
2023/01/20 11:29:16;;;;;;;23.83;12.53;;;;;;;2.03;100.00;99294.14;1475722;88;22201;-88
2023/01/20 11:31:49;;;;;;;19.05;10.13;;;;;;;2.03;100.00;99294.14;1475021;88;22152;-88
2023/01/20 11:34:30;;;;;;;20.97;12.63;;;;;;;1.98;100.00;99298.88;1474896;88;21443;-88
2023/01/20 11:37:25;;;;;;;20.05;11.48;;;;;;;2.08;100.00;99298.53;1478165;88;22221;-88
2023/01/20 11:40:01;;;;;;;17.57;11.10;;;;;;;2.06;100.00;99293.89;1475099;88;21361;-87
2023/01/20 11:42:31;;;;;;;25.40;11.80;;;;;;;2.11;100.00;99290.94;1476388;88;22213;-88
2023/01/20 11:45:00;;;;;;;18.25;10.88;;;;;;;2.11;100.00;99290.94;1474562;88;22109;-91
2023/01/20 11:47:35;;;;;;;22.77;11.03;;;;;;;2.08;100.00;99295.92;1472751;88;21438;-89
2023/01/20 11:50:09;;;;;;;20.80;12.17;;;;;;;2.02;100.00;99288.58;1476195;88;21851;-90
2023/01/20 11:52:43;;;;;;;20.87;10.97;;;;;;;2.13;100.00;99292.48;1471742;88;22073;-90
2023/01/20 11:55:26;;;;;;;21.33;13.17;;;;;;;2.18;100.00;99292.91;1471070;88;22145;-91
2023/01/20 11:58:02;;;;;;;23.40;10.87;;;;;;;2.25;100.00;99290.19;1467399;88;22310;-89
2023/01/20 12:00:42;;;;;;;22.50;12.87;;;;;;;2.15;100.00;99291.86;1473505;88;23056;-89
2023/01/20 12:03:57;;;;;;;18.50;12.37;;;;;;;2.14;100.00;99287.59;1470768;88;22051;-90
2023/01/20 12:06:34;;;;;;;19.30;11.50;;;;;;;2.18;100.00;99281.66;1474029;88;22109;-89